createdAt,value
2023-02-04T00:01:29.527Z,0.70
2023-02-04T00:03:59.007Z,0.83
2023-02-04T00:06:28.413Z,0.60
2023-02-04T00:08:57.865Z,0.40
2023-02-04T00:11:27.301Z,0.57
2023-02-04T00:13:56.750Z,0.90
2023-02-04T00:16:26.437Z,0.50
2023-02-04T00:18:55.949Z,1.87
2023-02-04T00:21:25.734Z,1.13
2023-02-04T00:23:56.457Z,0.57
2023-02-04T00:26:26.426Z,0.50
2023-02-04T00:28:56.251Z,0.60
2023-02-04T00:31:25.821Z,0.93
2023-02-04T00:33:55.474Z,0.87
2023-02-04T00:36:24.936Z,0.80
2023-02-04T00:38:54.384Z,0.87
2023-02-04T00:41:23.821Z,0.53
2023-02-04T00:43:53.271Z,0.73
2023-02-04T00:46:22.896Z,0.73
2023-02-04T00:48:52.334Z,1.13
2023-02-04T00:51:21.773Z,1.47
2023-02-04T00:53:51.218Z,0.77
2023-02-04T00:56:20.656Z,0.50
2023-02-04T00:58:50.166Z,0.50
2023-02-04T01:01:19.733Z,1.13
2023-02-04T01:03:49.229Z,0.47
2023-02-04T01:06:18.671Z,0.33
2023-02-04T01:08:48.296Z,0.63
2023-02-04T01:11:17.945Z,0.43
2023-02-04T01:13:47.620Z,0.30
2023-02-04T01:16:17.150Z,0.77
2023-02-04T01:18:47.091Z,0.37
2023-02-04T01:21:16.626Z,0.30
2023-02-04T01:23:46.043Z,0.77
2023-02-04T01:26:15.501Z,0.30
2023-02-04T01:28:45.082Z,0.30
2023-02-04T01:31:15.546Z,0.43
2023-02-04T01:33:44.953Z,0.40
2023-02-04T01:36:14.757Z,0.30
2023-02-04T01:38:44.219Z,1.20
2023-02-04T01:41:13.670Z,0.90
2023-02-04T01:43:43.356Z,0.63
2023-02-04T01:46:12.888Z,0.30
2023-02-04T01:48:42.720Z,0.50
2023-02-04T01:51:16.759Z,2.47
2023-02-04T01:53:46.599Z,0.30
2023-02-04T01:56:28.404Z,0.40
2023-02-04T01:58:59.844Z,0.50
2023-02-04T02:01:50.657Z,0.80
2023-02-04T02:04:24.785Z,0.57
2023-02-04T02:06:58.890Z,0.40
2023-02-04T02:09:30.365Z,0.30
2023-02-04T02:12:01.656Z,0.20
2023-02-04T02:14:31.109Z,0.43
2023-02-04T02:17:00.688Z,0.23
2023-02-04T02:19:34.745Z,0.40
2023-02-04T02:22:26.520Z,0.83
2023-02-04T02:24:56.148Z,0.10
2023-02-04T02:27:25.642Z,0.00
2023-02-04T02:29:55.169Z,0.10
2023-02-04T02:32:24.610Z,0.10
2023-02-04T02:34:54.051Z,0.10
2023-02-04T02:37:23.496Z,0.10
2023-02-04T02:39:53.029Z,0.20
2023-02-04T02:42:22.593Z,0.20
2023-02-04T02:44:54.001Z,0.20
2023-02-04T02:47:25.465Z,0.10
2023-02-04T02:49:56.260Z,0.10
2023-02-04T02:52:25.689Z,0.17
2023-02-04T02:54:55.144Z,0.10
2023-02-04T02:57:25.712Z,0.10
2023-02-04T02:59:55.174Z,0.07
2023-02-04T03:02:26.381Z,0.13
2023-02-04T03:05:01.236Z,0.20
2023-02-04T03:07:30.751Z,0.10
2023-02-04T03:10:00.186Z,0.10
2023-02-04T03:12:29.887Z,0.10
2023-02-04T03:14:59.347Z,0.10
2023-02-04T03:17:28.780Z,0.13
2023-02-04T03:19:58.950Z,0.23
2023-02-04T03:22:28.614Z,0.30
2023-02-04T03:24:58.441Z,0.17
2023-02-04T03:27:27.866Z,0.20
2023-02-04T03:29:57.320Z,0.10
2023-02-04T03:32:27.441Z,0.27
2023-02-04T03:34:56.877Z,0.10
2023-02-04T03:37:26.704Z,0.13
2023-02-04T03:39:56.155Z,0.10
2023-02-04T03:42:25.666Z,0.20
2023-02-04T03:44:55.177Z,0.30
2023-02-04T03:47:24.674Z,0.10
2023-02-04T03:49:54.206Z,0.10
2023-02-04T03:52:23.791Z,0.17
2023-02-04T03:54:53.237Z,0.20
2023-02-04T03:57:22.671Z,0.27
2023-02-04T03:59:52.123Z,0.10
2023-02-04T04:02:21.559Z,0.10
2023-02-04T04:04:51.008Z,0.13
2023-02-04T04:07:20.513Z,0.10
2023-02-04T04:09:49.957Z,0.33
2023-02-04T04:12:19.401Z,0.10
2023-02-04T04:14:48.842Z,0.10
2023-02-04T04:17:18.353Z,0.27
2023-02-04T04:19:49.570Z,0.13
2023-02-04T04:22:19.006Z,0.40
2023-02-04T04:24:48.631Z,0.13
2023-02-04T04:27:18.069Z,0.20
2023-02-04T04:29:47.873Z,0.20
2023-02-04T04:32:17.328Z,0.20
2023-02-04T04:34:46.754Z,1.07
2023-02-04T04:37:16.452Z,0.10
2023-02-04T04:39:45.884Z,0.10
2023-02-04T04:42:15.341Z,0.17
2023-02-04T04:44:44.773Z,0.30
2023-02-04T04:47:14.280Z,0.20
2023-02-04T04:49:43.724Z,0.20
2023-02-04T04:52:13.169Z,0.53
2023-02-04T04:54:42.703Z,0.30
2023-02-04T04:57:12.146Z,0.13
2023-02-04T04:59:41.602Z,0.57
2023-02-04T05:02:11.047Z,0.20
2023-02-04T05:04:40.647Z,0.10
2023-02-04T05:07:10.089Z,1.13
2023-02-04T05:09:39.531Z,0.20
2023-02-04T05:12:08.970Z,0.20
2023-02-04T05:14:38.486Z,0.20
2023-02-04T05:17:07.990Z,0.30
2023-02-04T05:19:37.437Z,0.27
2023-02-04T05:22:06.883Z,0.17
2023-02-04T05:24:36.323Z,0.20
2023-02-04T05:27:05.828Z,0.20
2023-02-04T05:29:35.284Z,0.13
2023-02-04T05:32:04.860Z,0.30
2023-02-04T05:34:34.300Z,0.10
2023-02-04T05:37:03.741Z,0.10
2023-02-04T05:39:33.711Z,0.53
2023-02-04T05:42:03.152Z,0.03
2023-02-04T05:44:32.598Z,0.10
2023-02-04T05:47:02.045Z,0.20
2023-02-04T05:49:31.486Z,0.20
2023-02-04T05:52:00.922Z,0.20
2023-02-04T05:54:30.738Z,0.10
2023-02-04T05:57:00.275Z,0.53
2023-02-04T05:59:29.746Z,0.30
2023-02-04T06:01:59.140Z,0.10
2023-02-04T06:04:28.640Z,0.17
2023-02-04T06:06:58.114Z,0.30
2023-02-04T06:09:27.557Z,0.10
2023-02-04T06:11:57.579Z,0.20
2023-02-04T06:14:27.020Z,0.10
2023-02-04T06:16:59.794Z,0.10
2023-02-04T06:19:29.464Z,0.10
2023-02-04T06:21:58.940Z,0.13
2023-02-04T06:24:28.383Z,0.10
2023-02-04T06:26:57.825Z,0.20
2023-02-04T06:29:27.283Z,0.17
2023-02-04T06:31:56.911Z,0.30
2023-02-04T06:34:26.457Z,0.10
2023-02-04T06:36:55.891Z,0.10
2023-02-04T06:39:25.564Z,0.13
2023-02-04T06:41:54.989Z,0.10
2023-02-04T06:44:24.439Z,0.10
2023-02-04T06:46:53.876Z,0.10
2023-02-04T06:49:25.211Z,0.10
2023-02-04T06:51:55.299Z,0.20
2023-02-04T06:54:25.038Z,0.10
2023-02-04T06:56:56.732Z,0.10
2023-02-04T06:59:27.291Z,0.13
2023-02-04T07:01:56.722Z,0.40
2023-02-04T07:04:26.172Z,0.10
2023-02-04T07:06:55.886Z,0.10
2023-02-04T07:09:25.416Z,0.10
2023-02-04T07:11:54.845Z,0.10
2023-02-04T07:14:24.291Z,0.10
2023-02-04T07:16:55.388Z,0.27
2023-02-04T07:19:25.507Z,0.10
2023-02-04T07:21:57.127Z,0.10
2023-02-04T07:24:27.215Z,0.13
2023-02-04T07:26:56.721Z,0.40
2023-02-04T07:29:26.242Z,0.13
2023-02-04T07:31:55.915Z,0.10
2023-02-04T07:34:25.667Z,0.10
2023-02-04T07:36:55.158Z,0.10
2023-02-04T07:39:25.001Z,0.10
2023-02-04T07:41:54.440Z,0.20
2023-02-04T07:44:23.972Z,0.20
2023-02-04T07:46:53.400Z,0.43
2023-02-04T07:49:22.855Z,0.10
2023-02-04T07:51:52.295Z,0.20
2023-02-04T07:54:21.746Z,0.20
2023-02-04T07:56:51.187Z,0.20
2023-02-04T07:59:20.634Z,0.30
2023-02-04T08:01:50.171Z,0.30
2023-02-04T08:04:20.214Z,0.10
2023-02-04T08:06:49.653Z,0.10
2023-02-04T08:09:19.099Z,0.10
2023-02-04T08:11:48.545Z,0.30
2023-02-04T08:14:17.988Z,0.10
2023-02-04T08:16:47.433Z,0.10
2023-02-04T08:19:18.523Z,0.10
2023-02-04T08:21:48.693Z,0.20
2023-02-04T08:24:18.886Z,0.60
2023-02-04T08:26:48.312Z,0.67
2023-02-04T08:29:17.758Z,0.33
2023-02-04T08:31:47.913Z,0.30
2023-02-04T08:34:18.928Z,0.30
2023-02-04T08:36:48.382Z,0.23
2023-02-04T08:39:17.796Z,0.33
2023-02-04T08:41:49.127Z,0.63
2023-02-04T08:44:18.744Z,0.20
2023-02-04T08:46:48.245Z,0.10
2023-02-04T08:49:17.696Z,0.40
2023-02-04T08:51:47.147Z,0.27
2023-02-04T08:54:16.589Z,0.63
2023-02-04T08:56:46.322Z,0.10
2023-02-04T08:59:16.143Z,0.37
2023-02-04T09:01:47.258Z,0.27
2023-02-04T09:04:16.914Z,0.27
2023-02-04T09:06:46.901Z,0.40
2023-02-04T09:09:17.141Z,0.37
2023-02-04T09:11:47.152Z,0.67
2023-02-04T09:14:17.058Z,0.30
2023-02-04T09:16:46.636Z,0.30
2023-02-04T09:19:16.645Z,0.20
2023-02-04T09:21:46.102Z,0.23
2023-02-04T09:24:15.568Z,0.40
2023-02-04T09:26:45.077Z,0.70
2023-02-04T09:29:14.509Z,0.30
2023-02-04T09:31:44.051Z,1.50
2023-02-04T09:34:13.569Z,0.57
2023-02-04T09:36:43.286Z,2.13
2023-02-04T09:39:12.725Z,0.50
2023-02-04T09:41:43.184Z,0.90
2023-02-04T09:44:17.467Z,0.43
2023-02-04T09:46:53.950Z,0.93
2023-02-04T09:49:23.917Z,0.67
2023-02-04T09:51:54.983Z,0.93
2023-02-04T09:54:25.918Z,0.20
2023-02-04T09:56:56.825Z,0.67
2023-02-04T09:59:29.579Z,0.40
2023-02-04T10:02:08.594Z,0.33
2023-02-04T10:04:39.211Z,0.53
2023-02-04T10:07:13.257Z,0.70
2023-02-04T10:09:42.974Z,1.40
2023-02-04T10:12:12.492Z,0.40
2023-02-04T10:14:42.087Z,1.43
2023-02-04T10:17:13.529Z,1.40
2023-02-04T10:19:42.982Z,0.30
2023-02-04T10:22:20.325Z,0.53
2023-02-04T10:24:49.789Z,0.20
2023-02-04T10:27:19.244Z,0.20
2023-02-04T10:30:00.245Z,1.10
2023-02-04T10:32:33.476Z,0.43
2023-02-04T10:35:04.164Z,0.50
2023-02-04T10:37:33.854Z,0.20
2023-02-04T10:40:03.339Z,0.23
2023-02-04T10:42:33.506Z,0.50
2023-02-04T10:45:02.972Z,0.33
2023-02-04T10:47:32.410Z,0.30
2023-02-04T10:50:18.433Z,0.30
2023-02-04T10:52:52.576Z,0.57
2023-02-04T10:55:25.060Z,0.83
2023-02-04T10:57:55.152Z,0.50
2023-02-04T11:00:27.547Z,0.40
2023-02-04T11:03:19.201Z,0.97
2023-02-04T11:05:48.684Z,0.40
2023-02-04T11:08:34.324Z,0.67
2023-02-04T11:11:10.383Z,0.63
2023-02-04T11:13:54.532Z,0.93
2023-02-04T11:16:32.888Z,1.33
2023-02-04T11:19:06.707Z,0.27
2023-02-04T11:21:40.786Z,0.93
2023-02-04T11:24:23.734Z,0.57
2023-02-04T11:27:00.368Z,0.53
2023-02-04T11:29:38.455Z,0.90
2023-02-04T11:32:31.245Z,1.57
2023-02-04T11:35:17.781Z,1.33
2023-02-04T11:37:49.107Z,1.00
2023-02-04T11:40:37.307Z,0.63
2023-02-04T11:43:17.346Z,0.67
2023-02-04T11:45:47.403Z,0.53
2023-02-04T11:48:21.339Z,0.73
2023-02-04T11:51:03.177Z,1.20
2023-02-04T11:53:35.145Z,0.40
2023-02-04T11:56:05.075Z,1.57
2023-02-04T11:58:35.218Z,1.50
2023-02-04T12:01:04.657Z,0.30
2023-02-04T12:03:35.295Z,0.60
2023-02-04T12:06:05.914Z,0.50
2023-02-04T12:08:37.684Z,0.40
2023-02-04T12:11:11.690Z,0.53
2023-02-04T12:13:53.615Z,0.30
2023-02-04T12:16:23.583Z,0.30
2023-02-04T12:18:53.292Z,0.40
2023-02-04T12:21:22.773Z,0.37
2023-02-04T12:23:52.202Z,0.30
2023-02-04T12:26:21.668Z,0.30
2023-02-04T12:28:51.103Z,0.30
2023-02-04T12:31:20.628Z,0.33
2023-02-04T12:33:50.059Z,0.93
2023-02-04T12:36:19.948Z,0.40
2023-02-04T12:38:49.324Z,0.50
2023-02-04T12:41:19.957Z,0.40
2023-02-04T12:43:50.571Z,0.53
2023-02-04T12:46:20.559Z,0.30
2023-02-04T12:48:50.008Z,0.40
2023-02-04T12:51:21.004Z,0.87
2023-02-04T12:53:51.012Z,0.53
2023-02-04T12:56:20.756Z,0.83
2023-02-04T12:58:50.194Z,0.77
2023-02-04T13:01:19.898Z,1.23
2023-02-04T13:03:49.305Z,0.87
2023-02-04T13:06:18.765Z,0.93
2023-02-04T13:08:48.207Z,0.30
2023-02-04T13:11:17.669Z,0.67
2023-02-04T13:13:47.122Z,0.30
2023-02-04T13:16:18.257Z,0.30
2023-02-04T13:18:47.721Z,0.40
2023-02-04T13:21:17.260Z,0.20
2023-02-04T13:23:46.709Z,0.30
2023-02-04T13:26:16.210Z,0.40
2023-02-04T13:28:45.635Z,0.37
2023-02-04T13:31:15.120Z,0.37
2023-02-04T13:33:44.588Z,0.30
2023-02-04T13:36:14.059Z,0.40
2023-02-04T13:38:43.505Z,0.53
2023-02-04T13:41:13.037Z,0.30
2023-02-04T13:43:42.464Z,0.20
2023-02-04T13:46:12.035Z,0.30
2023-02-04T13:48:41.428Z,0.43
2023-02-04T13:51:10.962Z,0.30
2023-02-04T13:53:41.223Z,0.20
2023-02-04T13:56:10.743Z,0.30
2023-02-04T13:58:41.881Z,0.20
2023-02-04T14:01:12.989Z,0.30
2023-02-04T14:03:43.909Z,0.30
2023-02-04T14:06:13.435Z,0.20
2023-02-04T14:08:42.944Z,0.40
2023-02-04T14:11:12.405Z,0.77
2023-02-04T14:13:41.834Z,0.30
2023-02-04T14:16:11.343Z,0.13
2023-02-04T14:18:40.797Z,0.20
2023-02-04T14:21:10.251Z,0.30
2023-02-04T14:23:39.684Z,0.20
2023-02-04T14:26:09.516Z,0.30
2023-02-04T14:28:38.940Z,0.43
2023-02-04T14:31:08.496Z,0.33
2023-02-04T14:33:38.012Z,0.40
2023-02-04T14:36:07.671Z,0.60
2023-02-04T14:38:38.759Z,0.20
2023-02-04T14:41:08.270Z,0.20
2023-02-04T14:43:37.707Z,0.30
2023-02-04T14:46:07.502Z,0.30
2023-02-04T14:48:36.943Z,0.30
2023-02-04T14:51:06.690Z,0.30
2023-02-04T14:53:36.162Z,0.20
2023-02-04T14:56:05.656Z,0.80
2023-02-04T14:58:35.109Z,0.30
2023-02-04T15:01:04.640Z,0.30
2023-02-04T15:03:34.155Z,0.40
2023-02-04T15:06:03.672Z,0.30
2023-02-04T15:08:33.198Z,0.30
2023-02-04T15:11:02.880Z,0.30
2023-02-04T15:13:32.480Z,0.30
2023-02-04T15:16:02.929Z,0.37
2023-02-04T15:18:33.259Z,0.50
2023-02-04T15:21:03.027Z,0.33
2023-02-04T15:23:32.507Z,0.40
2023-02-04T15:26:01.955Z,0.50
2023-02-04T15:28:31.488Z,0.40
2023-02-04T15:31:02.587Z,0.50
2023-02-04T15:33:32.564Z,0.40
2023-02-04T15:36:02.046Z,0.30
2023-02-04T15:38:31.503Z,0.30
2023-02-04T15:41:01.632Z,0.40
2023-02-04T15:43:31.081Z,0.70
2023-02-04T15:46:00.551Z,0.30
2023-02-04T15:48:30.051Z,0.30
2023-02-04T15:50:59.635Z,0.33
2023-02-04T15:53:29.101Z,0.20
2023-02-04T15:55:58.565Z,0.60
2023-02-04T15:58:28.014Z,2.20
2023-02-04T16:00:57.472Z,1.27
2023-02-04T16:03:27.075Z,2.50
2023-02-04T16:05:56.578Z,3.10
2023-02-04T16:08:26.070Z,0.60
2023-02-04T16:10:55.492Z,0.60
2023-02-04T16:13:24.963Z,0.57
2023-02-04T16:15:54.438Z,0.40
2023-02-04T16:18:25.958Z,0.40
2023-02-04T16:20:55.392Z,0.30
2023-02-04T16:23:25.142Z,0.30
2023-02-04T16:25:54.573Z,0.27
2023-02-04T16:28:24.109Z,0.20
2023-02-04T16:30:53.712Z,0.20
2023-02-04T16:33:23.316Z,0.30
2023-02-04T16:36:02.942Z,0.23
2023-02-04T16:38:33.117Z,0.40
2023-02-04T16:41:02.557Z,0.20
2023-02-04T16:43:32.636Z,0.30
2023-02-04T16:46:02.268Z,0.20
2023-02-04T16:48:31.775Z,0.20
2023-02-04T16:51:01.231Z,0.20
2023-02-04T16:53:30.726Z,0.10
2023-02-04T16:56:00.348Z,0.20
2023-02-04T16:58:29.962Z,0.10
2023-02-04T17:00:59.954Z,0.13
2023-02-04T17:03:29.464Z,0.37
2023-02-04T17:05:58.921Z,0.50
2023-02-04T17:08:29.812Z,0.37
2023-02-04T17:11:17.276Z,0.77
2023-02-04T17:13:46.748Z,0.30
2023-02-04T17:16:17.880Z,0.23
2023-02-04T17:18:47.625Z,0.33
2023-02-04T17:21:17.086Z,0.33
2023-02-04T17:23:47.050Z,0.40
2023-02-04T17:26:16.554Z,0.70
2023-02-04T17:28:46.235Z,0.93
2023-02-04T17:31:16.092Z,0.43
2023-02-04T17:33:46.044Z,0.70
2023-02-04T17:36:15.592Z,0.73
2023-02-04T17:38:45.016Z,0.50
2023-02-04T17:41:14.477Z,2.03
2023-02-04T17:43:43.930Z,1.83
2023-02-04T17:46:13.364Z,2.03
2023-02-04T17:48:43.090Z,3.00
2023-02-04T17:51:12.513Z,1.87
2023-02-04T17:53:42.133Z,3.03
2023-02-04T17:56:15.802Z,2.33
2023-02-04T17:58:45.813Z,2.33
2023-02-04T18:01:21.338Z,1.80
2023-02-04T18:03:51.565Z,2.00
2023-02-04T18:06:30.121Z,1.57
2023-02-04T18:09:02.737Z,1.40
2023-02-04T18:11:36.737Z,1.83
2023-02-04T18:14:27.929Z,1.00
2023-02-04T18:17:00.700Z,0.90
2023-02-04T18:19:39.686Z,1.07
2023-02-04T18:22:16.931Z,1.30
2023-02-04T18:24:48.909Z,0.93
2023-02-04T18:27:25.054Z,1.20
2023-02-04T18:29:56.620Z,1.10
2023-02-04T18:32:40.852Z,0.90
2023-02-04T18:35:39.285Z,0.80
2023-02-04T18:38:22.953Z,0.83
2023-02-04T18:41:05.116Z,1.70
2023-02-04T18:43:40.373Z,1.20
2023-02-04T18:46:28.292Z,1.60
2023-02-04T18:49:19.224Z,2.07
2023-02-04T18:51:48.718Z,0.90
2023-02-04T18:54:31.748Z,0.87
2023-02-04T18:57:18.478Z,0.90
2023-02-04T18:59:48.887Z,0.93
2023-02-04T19:02:35.458Z,0.50
2023-02-04T19:05:24.783Z,0.40
2023-02-04T19:08:13.272Z,0.43
2023-02-04T19:10:43.596Z,0.50
2023-02-04T19:13:42.239Z,0.60
2023-02-04T19:16:37.244Z,0.50
2023-02-04T19:19:40.578Z,0.30
2023-02-04T19:22:43.173Z,1.60
2023-02-04T19:25:37.447Z,1.27
2023-02-04T19:28:32.057Z,1.50
2023-02-04T19:31:09.682Z,1.70
2023-02-04T19:33:45.344Z,2.77
2023-02-04T19:36:31.350Z,2.80
2023-02-04T19:39:31.800Z,1.60
2023-02-04T19:42:01.248Z,1.40
2023-02-04T19:44:47.339Z,1.57
2023-02-04T19:47:27.365Z,1.87
2023-02-04T19:50:25.501Z,1.27
2023-02-04T19:53:05.223Z,1.23
2023-02-04T19:55:46.556Z,1.20
2023-02-04T19:58:32.015Z,0.90
2023-02-04T20:01:09.035Z,0.70
2023-02-04T20:03:47.120Z,0.83
2023-02-04T20:06:36.867Z,0.50
2023-02-04T20:09:28.173Z,0.50
2023-02-04T20:12:06.397Z,0.90
2023-02-04T20:14:47.256Z,0.43
2023-02-04T20:17:39.595Z,0.67
2023-02-04T20:20:22.950Z,0.60
2023-02-04T20:23:00.949Z,1.13
2023-02-04T20:25:38.469Z,0.30
2023-02-04T20:28:35.191Z,0.53
2023-02-04T20:31:13.921Z,0.40
2023-02-04T20:33:53.944Z,0.90
2023-02-04T20:36:41.395Z,0.60
2023-02-04T20:39:36.550Z,0.77
2023-02-04T20:42:25.543Z,0.50
2023-02-04T20:44:56.731Z,0.40
2023-02-04T20:47:29.455Z,0.60
2023-02-04T20:50:01.546Z,0.57
2023-02-04T20:52:51.262Z,0.40
2023-02-04T20:55:30.995Z,0.40
2023-02-04T20:58:23.051Z,0.40
2023-02-04T21:00:56.176Z,0.40
2023-02-04T21:03:30.192Z,0.57
2023-02-04T21:06:02.910Z,0.30
2023-02-04T21:08:45.564Z,0.40
2023-02-04T21:11:15.083Z,0.50
2023-02-04T21:13:44.864Z,0.40
2023-02-04T21:16:14.374Z,0.40
2023-02-04T21:18:43.879Z,0.40
2023-02-04T21:21:14.255Z,0.30
2023-02-04T21:23:43.705Z,0.50
2023-02-04T21:26:13.167Z,0.30
2023-02-04T21:28:42.604Z,0.33
2023-02-04T21:31:12.249Z,0.40
2023-02-04T21:33:41.775Z,0.30
2023-02-04T21:36:11.283Z,0.30
2023-02-04T21:38:40.889Z,0.63
2023-02-04T21:41:10.340Z,0.40
2023-02-04T21:43:39.962Z,0.47
2023-02-04T21:46:09.464Z,0.40
2023-02-04T21:48:38.921Z,0.30
2023-02-04T21:51:08.381Z,0.60
2023-02-04T21:53:38.899Z,0.40
2023-02-04T21:56:09.951Z,0.90
2023-02-04T21:58:39.472Z,0.37
2023-02-04T22:01:10.475Z,0.70
2023-02-04T22:03:39.928Z,0.80
2023-02-04T22:06:09.895Z,0.63
2023-02-04T22:08:39.376Z,0.60
2023-02-04T22:11:08.810Z,0.60
2023-02-04T22:13:38.261Z,0.77
2023-02-04T22:16:07.739Z,0.60
2023-02-04T22:18:37.228Z,0.50
2023-02-04T22:21:06.740Z,0.63
2023-02-04T22:23:36.190Z,0.90
2023-02-04T22:26:05.624Z,0.77
2023-02-04T22:28:35.072Z,0.80
2023-02-04T22:31:04.599Z,0.80
2023-02-04T22:33:34.238Z,1.00
2023-02-04T22:36:03.668Z,0.80
2023-02-04T22:38:33.115Z,0.60
2023-02-04T22:41:02.559Z,0.80
2023-02-04T22:43:32.103Z,0.90
2023-02-04T22:46:01.550Z,0.73
2023-02-04T22:48:30.978Z,0.73
2023-02-04T22:51:02.125Z,0.70
2023-02-04T22:53:32.154Z,0.60
2023-02-04T22:56:01.586Z,0.93
2023-02-04T22:58:31.545Z,0.63
2023-02-04T23:01:01.059Z,0.60
2023-02-04T23:03:31.035Z,1.00
2023-02-04T23:06:00.817Z,0.90
2023-02-04T23:08:30.255Z,1.10
2023-02-04T23:10:59.720Z,1.13
2023-02-04T23:13:29.309Z,1.13
2023-02-04T23:15:58.797Z,0.80
2023-02-04T23:18:28.264Z,0.80
2023-02-04T23:20:57.705Z,1.07
2023-02-04T23:23:28.708Z,0.80
2023-02-04T23:26:00.373Z,0.60
2023-02-04T23:28:30.150Z,1.23
2023-02-04T23:31:00.017Z,1.13
2023-02-04T23:33:29.594Z,1.03
2023-02-04T23:35:59.259Z,0.90
2023-02-04T23:38:30.350Z,0.80
2023-02-04T23:41:00.527Z,1.37
2023-02-04T23:43:30.417Z,0.97
2023-02-04T23:46:00.340Z,0.90
2023-02-04T23:48:30.206Z,0.77
2023-02-04T23:50:59.659Z,0.93
2023-02-04T23:53:29.094Z,1.10
2023-02-04T23:55:58.541Z,0.77
2023-02-04T23:58:27.977Z,0.70
